Time;durP1;ratioP1;P1;durP2;ratioP2;P2;SDS_P1;SDS_P2;PMS_P1;PMS_P2;Temp;Humidity;BMP_temperature;BMP_pressure;BME280_temperature;BME280_humidity;BME280_pressure;Samples;Min_cycle;Max_cycle;Signal;HPM_P1;HPM_P2
2023/03/20 05:30:18;;;;;;;;;;;;;;;;;;6248980;22;20341;-62
2023/03/20 05:32:45;;;;;;;43.15;20.90;;;;;;;;;;6305511;22;20342;-66
2023/03/20 05:35:11;;;;;;;48.45;21.42;;;;;;;;;;6305924;22;20015;-62
2023/03/20 05:37:38;;;;;;;44.30;21.40;;;;;;;;;;6305743;22;20085;-65
2023/03/20 05:40:05;;;;;;;43.15;20.58;;;;;;;;;;6305984;22;20010;-62
2023/03/20 05:42:31;;;;;;;40.22;20.17;;;;;;;;;;6304012;22;20026;-66
2023/03/20 05:44:57;;;;;;;38.30;20.45;;;;;;;;;;6304261;22;20304;-63
2023/03/20 05:47:23;;;;;;;44.08;20.85;;;;;;;;;;6306208;22;20034;-63
2023/03/20 05:49:49;;;;;;;52.25;25.63;;;;;;;;;;6306137;22;20053;-71
2023/03/20 05:52:15;;;;;;;51.40;26.02;;;;;;;;;;6305727;22;20387;-70
2023/03/20 05:54:41;;;;;;;40.10;24.25;;;;;;;;;;6305291;22;20335;-62
2023/03/20 05:57:07;;;;;;;46.42;23.25;;;;;;;;;;6305833;22;20319;-62
2023/03/20 05:59:33;;;;;;;41.88;23.33;;;;;;;;;;6305917;22;20449;-65
2023/03/20 06:01:59;;;;;;;47.20;22.90;;;;;;;;;;6305347;22;20031;-73
2023/03/20 06:04:25;;;;;;;43.90;24.27;;;;;;;;;;6305526;22;20011;-67
2023/03/20 06:06:51;;;;;;;41.40;23.67;;;;;;;;;;6305560;22;20003;-67
2023/03/20 06:09:17;;;;;;;45.38;23.25;;;;;;;;;;6305766;22;20031;-65
2023/03/20 06:11:43;;;;;;;82.30;46.13;;;;;;;;;;6305542;22;20000;-64
2023/03/20 06:14:09;;;;;;;78.40;39.05;;;;;;;;;;6305566;22;20007;-69
2023/03/20 06:16:35;;;;;;;70.20;34.72;;;;;;;;;;6305100;22;20003;-63
2023/03/20 06:19:01;;;;;;;61.08;30.80;;;;;;;;;;6304201;22;19999;-71
2023/03/20 06:21:27;;;;;;;52.08;26.60;;;;;;;;;;6304406;22;20066;-74
2023/03/20 06:23:53;;;;;;;45.33;24.63;;;;;;;;;;6304253;22;20011;-64
2023/03/20 06:26:20;;;;;;;41.70;23.63;;;;;;;;;;6305048;22;20053;-63
2023/03/20 06:28:46;;;;;;;42.60;23.92;;;;;;;;;;6305754;22;20003;-63
2023/03/20 06:31:12;;;;;;;44.47;25.58;;;;;;;;;;6304987;22;20011;-63
2023/03/20 06:33:39;;;;;;;46.55;24.90;;;;;;;;;;6305415;22;20041;-74
2023/03/20 06:36:05;;;;;;;46.90;24.05;;;;;;;;;;6304211;22;20006;-73
2023/03/20 06:38:31;;;;;;;44.92;25.65;;;;;;;;;;6301655;22;20466;-63
2023/03/20 06:40:57;;;;;;;45.03;24.55;;;;;;;;;;6304158;22;20442;-65
2023/03/20 06:43:23;;;;;;;40.90;23.95;;;;;;;;;;6304189;22;20003;-68
2023/03/20 06:45:49;;;;;;;45.50;26.00;;;;;;;;;;6302167;22;20060;-66
2023/03/20 06:48:20;;;;;;;43.63;24.75;;;;;;;;;;6304148;22;20108;-65
2023/03/20 06:50:46;;;;;;;47.00;25.00;;;;;;;;;;6304561;22;19999;-63
2023/03/20 06:53:12;;;;;;;51.28;27.75;;;;;;;;;;6304513;22;19999;-65
2023/03/20 06:55:38;;;;;;;44.92;24.55;;;;;;;;;;6304314;22;20444;-64
2023/03/20 06:58:04;;;;;;;47.08;24.80;;;;;;;;;;6304113;22;20003;-63
2023/03/20 07:00:31;;;;;;;47.50;25.42;;;;;;;;;;6304788;22;20026;-63
2023/03/20 07:02:57;;;;;;;45.13;24.48;;;;;;;;;;6305224;22;20003;-69
2023/03/20 07:05:23;;;;;;;41.78;23.98;;;;;;;;;;6304422;22;20024;-65
2023/03/20 07:07:49;;;;;;;46.65;24.65;;;;;;;;;;6304578;22;19999;-70
2023/03/20 07:10:16;;;;;;;44.65;24.50;;;;;;;;;;6303293;22;20082;-64
2023/03/20 07:12:42;;;;;;;40.35;24.33;;;;;;;;;;6305090;22;20060;-63
2023/03/20 07:15:10;;;;;;;43.90;24.63;;;;;;;;;;6304390;22;20015;-63
2023/03/20 07:17:36;;;;;;;45.55;24.92;;;;;;;;;;6302742;22;20060;-63
2023/03/20 07:20:02;;;;;;;44.72;23.95;;;;;;;;;;6305252;22;20010;-63
2023/03/20 07:22:30;;;;;;;42.53;23.55;;;;;;;;;;6304288;22;20364;-64
2023/03/20 07:24:56;;;;;;;44.20;24.70;;;;;;;;;;6304906;22;20007;-64
2023/03/20 07:27:22;;;;;;;36.65;22.60;;;;;;;;;;6305159;22;20077;-64
2023/03/20 07:29:49;;;;;;;41.15;23.73;;;;;;;;;;6304724;22;20057;-64
2023/03/20 07:32:15;;;;;;;40.55;24.75;;;;;;;;;;6304312;22;20170;-78
2023/03/20 07:34:41;;;;;;;38.22;23.52;;;;;;;;;;6304755;22;20011;-64
2023/03/20 07:37:08;;;;;;;37.55;23.20;;;;;;;;;;6305205;22;20005;-65
2023/03/20 07:39:34;;;;;;;38.88;23.45;;;;;;;;;;6304797;22;19999;-67
2023/03/20 07:42:00;;;;;;;40.75;24.63;;;;;;;;;;6304750;22;20000;-66
2023/03/20 07:44:26;;;;;;;39.33;23.83;;;;;;;;;;6304734;22;20006;-66
2023/03/20 07:46:52;;;;;;;39.83;22.48;;;;;;;;;;6303952;22;19999;-71
2023/03/20 07:49:18;;;;;;;35.88;21.88;;;;;;;;;;6304824;22;20007;-64
2023/03/20 07:51:45;;;;;;;35.95;21.30;;;;;;;;;;6304740;22;20018;-65
